Huvudsida
METAR-TAF:

METAR-TAF

Flygplatser :

Kuopio flygplats

Kuopio, Finland

latitud: 63-01N, longitud: 027-48E, höjd: 98 m

Aktuellt väderrapport

Denna rapport gjordes för 16 minuter sedan, klockan 19:20 UTC
Vind 3 kt från syd/sydväst
Temperatur 16°C
Fuktighet 88%
Tryck 1016 hPa
Sikt 10 km eller mer
Mulet på en höjd av 4700 ft

METAR: EFKU 251920Z AUTO 20003KT 9999 OVC047 16/14 Q1016

Tid: 22:36 (19:36 UTC)

Väderprognos

Denna rapport gjordes för 2 timmar och 12 minuter sedan, klockan 17:24 UTC
Prognos gäller från 25 kl. 18 UTC till 26 kl. 18 UTC
Vind 4 kt från väst/sydväst
Sikt 10 km eller mer
Brutna moln på en höjd av 4500 ft

TAF: EFKU 251724Z 2518/2618 24004KT 9999 BKN045

Aktuella väderrapporter och prognoser från 4000 flygplatser (METAR- och TAF-rapporter).

De tillgängliga stationerna syns som gula och röda prickar på kartan.

För musen över prickarna för att se namnen på stationerna.

Klicka sedan för att få väderrapporter och prognoser.

För att ändra kartan: Klicka på de gröna knapparna med ett svart kors på för att zooma in; den gröna knappen med ett streck på för att zooma ut; eller på de gröna pilarna för angränsande kartor.


METAR-TAF: